Time;durP1;ratioP1;P1;durP2;ratioP2;P2;SDS_P1;SDS_P2;PMS_P1;PMS_P2;Temp;Humidity;BMP_temperature;BMP_pressure;BME280_temperature;BME280_humidity;BME280_pressure;Samples;Min_cycle;Max_cycle;Signal;HPM_P1;HPM_P2
2022/09/07 00:01:23;;;;;;;;;;;;;;;-142.75;100.00;76355.72;5071153;28;19912;-72
2022/09/07 00:03:48;;;;;;;;;;;;;;;-142.75;100.00;76359.66;5072387;28;19912;-72
2022/09/07 00:06:14;;;;;;;;;;;;;;;-142.75;100.00;76347.84;5072256;28;20342;-71
2022/09/07 00:08:39;;;;;;;;;;;;;;;-142.75;100.00;76351.81;5072039;28;19936;-72
2022/09/07 00:11:06;;;;;;;;;;;;;;;-142.75;100.00;76369.50;5072332;28;20377;-72
2022/09/07 00:13:33;;;;;;;;;;;;;;;-142.75;100.00;76377.38;5072442;28;20385;-72
2022/09/07 00:16:02;;;;;;;;;;;;;;;-142.75;100.00;76377.38;5072298;28;19919;-71
2022/09/07 00:18:27;;;;;;;;;;;;;;;-142.75;100.00;76389.19;5071183;28;20061;-72
2022/09/07 00:21:02;;;;;;;;;;;;;;;-142.75;100.00;76399.03;5072254;28;19981;-72
2022/09/07 00:23:29;;;;;;;;;;;;;;;-142.75;100.00;76391.16;5072544;28;19919;-71
2022/09/07 00:25:57;;;;;;;;;;;;;;;-142.75;100.00;76385.25;5072428;28;19916;-71
2022/09/07 00:28:23;;;;;;;;;;;;;;;-142.75;100.00;76397.06;5070809;28;19916;-71
2022/09/07 00:30:48;;;;;;;;;;;;;;;-142.75;100.00;76397.06;5073047;28;20393;-71
2022/09/07 00:33:13;;;;;;;;;;;;;;;-142.75;100.00;76385.25;5071204;28;19966;-72
2022/09/07 00:35:39;;;;;;;;;;;;;;;-142.75;100.00;76383.28;5072531;28;19913;-71
2022/09/07 00:38:04;;;;;;;;;;;;;;;-142.75;100.00;76385.25;5072075;28;20420;-71
2022/09/07 00:40:30;;;;;;;;;;;;;;;-142.75;100.00;76389.19;5072386;28;20007;-71
2022/09/07 00:42:55;;;;;;;;;;;;;;;-142.75;100.00;76371.47;5072722;28;19919;-71
2022/09/07 00:45:20;;;;;;;;;;;;;;;-142.75;100.00;76373.44;5072439;28;19964;-71
2022/09/07 00:47:58;;;;;;;;;;;;;;;-142.75;100.00;76357.69;5072136;28;20020;-72
2022/09/07 00:50:38;;;;;;;;;;;;;;;-142.75;100.00;76373.44;5071414;28;20305;-71
2022/09/07 00:53:12;;;;;;;;;;;;;;;-142.75;100.00;76379.34;5072750;28;20029;-71
2022/09/07 00:55:39;;;;;;;;;;;;;;;-142.75;100.00;76387.22;5072534;28;19920;-72
2022/09/07 00:58:05;;;;;;;;;;;;;;;-142.75;100.00;76395.09;5073096;28;19917;-71
2022/09/07 01:00:31;;;;;;;;;;;;;;;-142.75;100.00;76408.88;5076800;28;19920;-71
2022/09/07 01:02:57;;;;;;;;;;;;;;;-142.75;100.00;76406.91;5076493;28;19999;-71
2022/09/07 01:05:22;;;;;;;;;;;;;;;-142.75;100.00;76397.06;5076298;28;19913;-72
2022/09/07 01:07:47;;;;;;;;;;;;;;;-142.75;100.00;76412.81;5076014;28;19923;-72
2022/09/07 01:10:13;;;;;;;;;;;;;;;-142.75;100.00;76416.75;5076454;28;19958;-71
2022/09/07 01:12:38;;;;;;;;;;;;;;;-142.75;100.00;76418.72;5076220;28;20366;-72
2022/09/07 01:15:04;;;;;;;;;;;;;;;-142.75;100.00;76406.91;5076117;28;19916;-71
2022/09/07 01:17:35;;;;;;;;;;;;;;;-142.75;100.00;76399.03;5075677;28;19912;-72
2022/09/07 01:20:00;;;;;;;;;;;;;;;-142.75;100.00;76373.44;5074383;28;19916;-71
2022/09/07 01:22:25;;;;;;;;;;;;;;;-142.75;100.00;76365.56;5076001;28;19916;-71
2022/09/07 01:24:51;;;;;;;;;;;;;;;-142.75;100.00;76373.44;5076131;28;20006;-72
2022/09/07 01:27:31;;;;;;;;;;;;;;;-142.75;100.00;76377.38;5074564;28;20294;-71
2022/09/07 01:29:59;;;;;;;;;;;;;;;-142.75;100.00;76359.66;5074366;28;20275;-72
2022/09/07 01:32:57;;;;;;;;;;;;;;;-142.75;100.00;76359.66;5076037;28;19913;-72
2022/09/07 01:35:25;;;;;;;;;;;;;;;-142.75;100.00;76359.66;5042145;28;19920;-72
2022/09/07 01:37:53;;;;;;;;;;;;;;;-142.75;100.00;76371.47;5075986;28;20377;-72
2022/09/07 01:40:23;;;;;;;;;;;;;;;-142.75;100.00;76365.56;5076449;28;19955;-72
2022/09/07 01:42:52;;;;;;;;;;;;;;;-142.75;100.00;76349.81;5075540;28;19952;-71
2022/09/07 01:45:18;;;;;;;;;;;;;;;-142.75;100.00;76355.72;5076726;28;20002;-71
2022/09/07 01:47:45;;;;;;;;;;;;;;;-142.75;100.00;76361.63;5074979;28;19940;-72
2022/09/07 01:50:30;;;;;;;;;;;;;;;-142.75;100.00;76353.78;5074327;28;19916;-72
2022/09/07 01:52:58;;;;;;;;;;;;;;;-142.75;100.00;76357.69;5074641;28;19913;-72
2022/09/07 01:55:30;;;;;;;;;;;;;;;-142.75;100.00;76347.84;5075560;28;19936;-72
2022/09/07 01:58:06;;;;;;;;;;;;;;;-142.75;100.00;76349.81;5075620;28;19912;-72
2022/09/07 02:00:32;;;;;;;;;;;;;;;-142.75;100.00;76338.03;5076397;28;20289;-72
2022/09/07 02:03:05;;;;;;;;;;;;;;;-142.75;100.00;76355.72;5075938;28;19916;-72
2022/09/07 02:05:38;;;;;;;;;;;;;;;-142.75;100.00;76349.81;5076129;28;20003;-72
2022/09/07 02:08:03;;;;;;;;;;;;;;;-142.75;100.00;76349.81;5075645;28;19951;-72
2022/09/07 02:10:33;;;;;;;;;;;;;;;-142.75;100.00;76349.81;5073639;28;20006;-72
2022/09/07 02:13:05;;;;;;;;;;;;;;;-142.75;100.00;76343.94;5074881;28;19944;-72
2022/09/07 02:15:42;;;;;;;;;;;;;;;-142.75;100.00;76347.84;5075484;28;19972;-72
2022/09/07 02:18:08;;;;;;;;;;;;;;;-142.75;100.00;76365.56;5074955;28;19920;-71
2022/09/07 02:20:36;;;;;;;;;;;;;;;-142.75;100.00;76385.25;5075503;28;20003;-72
2022/09/07 02:23:05;;;;;;;;;;;;;;;-142.75;100.00;76401.00;5075114;28;19912;-72
2022/09/07 02:25:34;;;;;;;;;;;;;;;-142.75;100.00;76393.13;5074626;28;19912;-72
2022/09/07 02:28:06;;;;;;;;;;;;;;;-142.75;100.00;76381.31;5074677;28;19912;-72
2022/09/07 02:30:31;;;;;;;;;;;;;;;-142.75;100.00;76369.50;5073543;28;20011;-71
2022/09/07 02:32:57;;;;;;;;;;;;;;;-142.75;100.00;76375.41;5074894;28;20451;-72
2022/09/07 02:35:22;;;;;;;;;;;;;;;-142.75;100.00;76385.25;5075410;28;19920;-71
2022/09/07 02:37:47;;;;;;;;;;;;;;;-142.75;100.00;76393.13;5074463;28;19913;-72
2022/09/07 02:40:13;;;;;;;;;;;;;;;-142.75;100.00;76379.34;5074641;28;19919;-72
2022/09/07 02:42:38;;;;;;;;;;;;;;;-142.75;100.00;76391.16;5075046;28;19916;-72
2022/09/07 02:45:06;;;;;;;;;;;;;;;-142.75;100.00;76377.38;5074436;28;19913;-72
2022/09/07 02:47:31;;;;;;;;;;;;;;;-142.75;100.00;76373.44;5074083;28;20435;-72
2022/09/07 02:50:05;;;;;;;;;;;;;;;-142.75;100.00;76385.25;5074432;28;19913;-71
2022/09/07 02:52:42;;;;;;;;;;;;;;;-142.75;100.00;76391.16;5074663;28;19912;-72
2022/09/07 02:55:14;;;;;;;;;;;;;;;-142.75;100.00;76404.94;5074767;28;19912;-72
2022/09/07 02:57:58;;;;;;;;;;;;;;;-142.75;100.00;76418.72;5074732;28;19912;-72
2022/09/07 03:00:26;;;;;;;;;;;;;;;-142.75;100.00;76393.13;5072700;28;20325;-72
2022/09/07 03:03:14;;;;;;;;;;;;;;;-142.75;100.00;76389.19;5074417;28;20421;-72
2022/09/07 03:05:43;;;;;;;;;;;;;;;-142.75;100.00;76385.25;5072686;28;19913;-72
2022/09/07 03:08:15;;;;;;;;;;;;;;;-142.75;100.00;76377.38;5073922;28;19951;-72
2022/09/07 03:10:41;;;;;;;;;;;;;;;-142.75;100.00;76387.22;5074395;28;20317;-72
2022/09/07 03:13:06;;;;;;;;;;;;;;;-142.75;100.00;76383.28;5073831;28;19923;-72
2022/09/07 03:15:32;;;;;;;;;;;;;;;-142.75;100.00;76379.34;5072483;28;20002;-72
2022/09/07 03:17:57;;;;;;;;;;;;;;;-142.75;100.00;76375.41;5072951;28;19972;-72
2022/09/07 03:20:22;;;;;;;;;;;;;;;-142.75;100.00;76377.38;5087549;28;19915;-72
2022/09/07 03:22:48;;;;;;;;;;;;;;;-142.75;100.00;76369.50;5072440;28;19919;-72
2022/09/07 03:25:14;;;;;;;;;;;;;;;-142.75;100.00;76369.50;5073180;28;19921;-71
2022/09/07 03:27:39;;;;;;;;;;;;;;;-142.75;100.00;76357.69;5072950;28;19982;-71
2022/09/07 03:30:06;;;;;;;;;;;;;;;-142.75;100.00;76343.94;5073086;28;20050;-71
2022/09/07 03:32:32;;;;;;;;;;;;;;;-142.75;100.00;76343.94;5073489;28;20413;-72
2022/09/07 03:34:58;;;;;;;;;;;;;;;-142.75;100.00;76341.97;5073254;28;19912;-72
2022/09/07 03:37:23;;;;;;;;;;;;;;;-142.75;100.00;76349.81;5072308;28;19912;-71
2022/09/07 03:39:48;;;;;;;;;;;;;;;-142.75;100.00;76353.78;5072807;28;19912;-72
2022/09/07 03:42:14;;;;;;;;;;;;;;;-142.75;100.00;76371.47;5072886;28;19912;-72
2022/09/07 03:44:39;;;;;;;;;;;;;;;-142.75;100.00;76371.47;5072859;28;19952;-73
2022/09/07 03:47:04;;;;;;;;;;;;;;;-142.75;100.00;76389.19;5071311;28;19923;-72
2022/09/07 03:49:29;;;;;;;;;;;;;;;-142.75;100.00;76369.50;5072766;28;19912;-72
2022/09/07 03:51:55;;;;;;;;;;;;;;;-142.75;100.00;76377.38;5072777;28;19912;-72
2022/09/07 03:54:21;;;;;;;;;;;;;;;-142.75;100.00;76381.31;5072895;28;19956;-72
2022/09/07 03:56:46;;;;;;;;;;;;;;;-142.75;100.00;76391.16;5072498;28;19916;-73
2022/09/07 03:59:11;;;;;;;;;;;;;;;-142.75;100.00;76402.97;5072835;28;19913;-72
2022/09/07 04:01:36;;;;;;;;;;;;;;;-142.75;100.00;76414.78;5071374;28;19923;-72
2022/09/07 04:04:01;;;;;;;;;;;;;;;-142.75;100.00;76428.56;5071408;28;20016;-72
2022/09/07 04:06:27;;;;;;;;;;;;;;;-142.75;100.00;76428.56;5071365;28;19966;-72
2022/09/07 04:08:52;;;;;;;;;;;;;;;-142.75;100.00;76436.44;5072569;28;19912;-72
2022/09/07 04:11:18;;;;;;;;;;;;;;;-142.75;100.00;76444.31;5072636;28;20443;-72
2022/09/07 04:13:44;;;;;;;;;;;;;;;-142.75;100.00;76440.38;5072832;28;19912;-72
2022/09/07 04:16:17;;;;;;;;;;;;;;;-142.75;100.00;76452.19;5073167;28;19923;-72
2022/09/07 04:18:42;;;;;;;;;;;;;;;-142.75;100.00;76444.31;5072931;28;20019;-72
2022/09/07 04:21:08;;;;;;;;;;;;;;;-142.75;100.00;76444.31;5072853;28;19991;-72
2022/09/07 04:23:35;;;;;;;;;;;;;;;-142.75;100.00;76452.19;5072936;28;20396;-72
2022/09/07 04:26:02;;;;;;;;;;;;;;;-142.75;100.00;76473.84;5071953;28;20405;-73
2022/09/07 04:28:28;;;;;;;;;;;;;;;-142.75;100.00;76471.88;5095166;22;19959;-67
2022/09/07 04:30:53;;;;;;;;;;;;;;;-142.75;100.00;76460.06;5011710;28;19929;-69
2022/09/07 04:33:18;;;;;;;;;;;;;;;-142.75;100.00;76452.19;5032595;28;19956;-69
2022/09/07 04:35:43;;;;;;;;;;;;;;;-142.75;100.00;76448.25;5018556;28;19968;-68
2022/09/07 04:38:12;;;;;;;;;;;;;;;-142.75;100.00;76454.16;5035883;28;19915;-68
2022/09/07 04:40:37;;;;;;;;;;;;;;;-142.75;100.00;76444.31;5036078;28;19914;-68
2022/09/07 04:43:04;;;;;;;;;;;;;;;-142.75;100.00;76442.34;5036116;28;19913;-69
2022/09/07 04:45:29;;;;;;;;;;;;;;;-142.75;100.00;76440.38;5036071;28;19959;-68
2022/09/07 04:47:54;;;;;;;;;;;;;;;-142.75;100.00;76440.38;5035781;28;19969;-68
2022/09/07 04:50:19;;;;;;;;;;;;;;;-142.75;100.00;76438.41;5035977;28;20019;-69
2022/09/07 04:52:45;;;;;;;;;;;;;;;-142.75;100.00;76428.56;5035981;28;19913;-69
2022/09/07 04:55:10;;;;;;;;;;;;;;;-142.75;100.00;76424.63;5034642;28;20011;-68
2022/09/07 04:57:36;;;;;;;;;;;;;;;-142.75;100.00;76432.50;5035531;28;19955;-68
2022/09/07 05:00:02;;;;;;;;;;;;;;;-142.75;100.00;76448.25;5035131;28;19913;-67
2022/09/07 05:02:28;;;;;;;;;;;;;;;-142.75;100.00;76438.41;5033904;28;19992;-67
2022/09/07 05:04:53;;;;;;;;;;;;;;;-142.75;100.00;76436.44;5034473;28;20026;-67
2022/09/07 05:07:18;;;;;;;;;;;;;;;-142.75;100.00;76422.66;5035336;28;19980;-68
2022/09/07 05:09:43;;;;;;;;;;;;;;;-142.75;100.00;76424.63;5034358;28;20302;-68
2022/09/07 05:12:08;;;;;;;;;;;;;;;-142.75;100.00;76428.56;5035608;28;20043;-67
2022/09/07 05:14:33;;;;;;;;;;;;;;;-142.75;100.00;76422.66;5035462;28;19917;-68
2022/09/07 05:16:59;;;;;;;;;;;;;;;-142.75;100.00;76404.94;5035196;28;20349;-67
2022/09/07 05:19:24;;;;;;;;;;;;;;;-142.75;100.00;76402.97;5050706;28;19955;-67
2022/09/07 05:21:49;;;;;;;;;;;;;;;-142.75;100.00;76401.00;5035419;28;19913;-68
2022/09/07 05:24:14;;;;;;;;;;;;;;;-142.75;100.00;76393.13;5035391;28;19913;-68
2022/09/07 05:26:40;;;;;;;;;;;;;;;-142.75;100.00;76393.13;5035034;28;19949;-68
2022/09/07 05:29:05;;;;;;;;;;;;;;;-142.75;100.00;76391.16;5035013;28;19971;-68
2022/09/07 05:31:31;;;;;;;;;;;;;;;-142.75;100.00;76389.19;5034495;28;19917;-68
2022/09/07 05:33:57;;;;;;;;;;;;;;;-142.75;100.00;76379.34;5035255;28;19967;-68
2022/09/07 05:36:26;;;;;;;;;;;;;;;-142.75;100.00;76387.22;5050540;28;19913;-69
2022/09/07 05:38:52;;;;;;;;;;;;;;;-142.75;100.00;76389.19;5034892;28;20298;-68
2022/09/07 05:41:19;;;;;;;;;;;;;;;-142.75;100.00;76393.13;5035093;28;19913;-68
2022/09/07 05:43:45;;;;;;;;;;;;;;;-142.75;100.00;76401.00;5033774;28;19913;-67
2022/09/07 05:46:11;;;;;;;;;;;;;;;-142.75;100.00;76401.00;5033241;28;20008;-68
2022/09/07 05:48:36;;;;;;;;;;;;;;;-142.75;100.00;76406.91;5028485;28;20394;-69
2022/09/07 05:51:02;;;;;;;;;;;;;;;-142.75;100.00;76408.88;5032723;28;19917;-68
2022/09/07 05:53:27;;;;;;;;;;;;;;;-142.75;100.00;76420.69;5028207;28;20489;-69
2022/09/07 05:55:56;;;;;;;;;;;;;;;-142.75;100.00;76402.97;5020554;28;19925;-69
2022/09/07 05:58:21;;;;;;;;;;;;;;;-142.75;100.00;76420.69;5033664;28;19947;-67
2022/09/07 06:00:46;;;;;;;;;;;;;;;-142.75;100.00;76418.72;5034094;28;20394;-68
2022/09/07 06:03:11;;;;;;;;;;;;;;;-142.75;100.00;76416.75;5032799;28;19913;-69
2022/09/07 06:05:36;;;;;;;;;;;;;;;-142.75;100.00;76416.75;5033873;28;19917;-66
2022/09/07 06:08:02;;;;;;;;;;;;;;;-142.75;100.00;76424.63;5033756;28;19925;-67
2022/09/07 06:10:30;;;;;;;;;;;;;;;-142.75;100.00;76416.75;5033764;28;20003;-68
2022/09/07 06:12:55;;;;;;;;;;;;;;;-142.75;100.00;76416.75;5033871;28;20430;-67
2022/09/07 06:15:20;;;;;;;;;;;;;;;-142.75;100.00;76412.81;5033618;28;19990;-67
2022/09/07 06:17:45;;;;;;;;;;;;;;;-142.75;100.00;76408.88;5033624;28;20310;-68
2022/09/07 06:20:11;;;;;;;;;;;;;;;-142.75;100.00;76393.13;5033626;28;19913;-67
2022/09/07 06:22:36;;;;;;;;;;;;;;;-142.75;100.00;76402.97;5032179;28;19917;-68
2022/09/07 06:25:02;;;;;;;;;;;;;;;-142.75;100.00;76401.00;5033793;28;20379;-68
2022/09/07 06:27:27;;;;;;;;;;;;;;;-142.75;100.00;76401.00;5032957;28;20648;-68
2022/09/07 06:29:52;;;;;;;;;;;;;;;-142.75;100.00;76401.00;5033425;28;20290;-67
2022/09/07 06:32:18;;;;;;;;;;;;;;;-142.75;100.00;76414.78;5033339;28;19953;-67
2022/09/07 06:34:43;;;;;;;;;;;;;;;-142.75;100.00;76418.72;5033574;28;19999;-68
2022/09/07 06:37:08;;;;;;;;;;;;;;;-142.75;100.00;76416.75;5031749;28;19944;-67
2022/09/07 06:39:35;;;;;;;;;;;;;;;-142.75;100.00;76393.13;5031837;28;19917;-69
2022/09/07 06:42:00;;;;;;;;;;;;;;;-142.75;100.00;76373.44;5029210;28;20383;-68
2022/09/07 06:44:26;;;;;;;;;;;;;;;-142.75;100.00;76355.72;5030034;28;19964;-69
2022/09/07 06:46:51;;;;;;;;;;;;;;;-142.75;100.00;76365.56;5027657;28;19964;-67
2022/09/07 06:49:16;;;;;;;;;;;;;;;-142.75;100.00;76371.47;5033086;28;19959;-68
2022/09/07 06:51:41;;;;;;;;;;;;;;;-142.75;100.00;76357.69;5031790;28;19974;-67
2022/09/07 06:54:08;;;;;;;;;;;;;;;-142.75;100.00;76349.81;5031823;28;20056;-67
2022/09/07 06:56:33;;;;;;;;;;;;;;;-142.75;100.00;76355.72;5032560;28;19913;-67
2022/09/07 06:58:58;;;;;;;;;;;;;;;-142.75;100.00;76349.81;5033009;28;19920;-69
2022/09/07 07:01:24;;;;;;;;;;;;;;;-142.75;100.00;76345.91;5032804;28;20007;-68
2022/09/07 07:03:50;;;;;;;;;;;;;;;-142.75;100.00;76318.34;5031661;28;19914;-68
2022/09/07 07:06:16;;;;;;;;;;;;;;;-142.75;100.00;76330.16;5032694;28;20004;-68
2022/09/07 07:08:41;;;;;;;;;;;;;;;-142.75;100.00;76334.09;5032484;28;20362;-68
2022/09/07 07:11:08;;;;;;;;;;;;;;;-142.75;100.00;76314.41;5032447;28;19919;-67
2022/09/07 07:13:34;;;;;;;;;;;;;;;-142.75;100.00;76292.75;5015794;28;19913;-69
2022/09/07 07:16:05;;;;;;;;;;;;;;;-142.75;100.00;76278.97;5015927;28;20573;-67
2022/09/07 07:18:31;;;;;;;;;;;;;;;-142.75;100.00;76229.75;5027152;28;19917;-68
2022/09/07 07:20:56;;;;;;;;;;;;;;;-142.75;100.00;76202.19;5028878;28;19925;-68
2022/09/07 07:23:21;;;;;;;;;;;;;;;-142.75;100.00;76196.31;5022417;28;19939;-70
2022/09/07 07:25:46;;;;;;;;;;;;;;;-142.75;100.00;76192.38;5031502;28;19948;-68
2022/09/07 07:28:12;;;;;;;;;;;;;;;-142.75;100.00;76188.44;5030691;28;19916;-68
2022/09/07 07:30:38;;;;;;;;;;;;;;;-142.75;100.00;76178.59;5032109;28;19917;-69
2022/09/07 07:33:17;;;;;;;;;;;;;;;-142.75;100.00;76156.94;5032390;28;19979;-69
2022/09/07 07:35:44;;;;;;;;;;;;;;;-142.75;100.00;76131.34;4993871;28;19964;-68
2022/09/07 07:38:09;;;;;;;;;;;;;;;-142.75;100.00;76139.22;5030640;28;19913;-69
2022/09/07 07:40:35;;;;;;;;;;;;;;;-142.75;100.00;76111.66;5031825;28;19956;-69
2022/09/07 07:43:00;;;;;;;;;;;;;;;-142.75;100.00;76093.94;5032139;28;19913;-69
2022/09/07 07:45:25;;;;;;;;;;;;;;;-142.75;100.00;76078.19;5031821;28;19921;-71
2022/09/07 07:47:51;;;;;;;;;;;;;;;-142.75;100.00;76050.66;5030374;28;20378;-70
2022/09/07 07:50:16;;;;;;;;;;;;;;;-142.75;100.00;76038.84;5031705;28;19921;-70
2022/09/07 07:52:41;;;;;;;;;;;;;;;-142.75;100.00;76027.03;5031571;28;19920;-68
2022/09/07 07:55:07;;;;;;;;;;;;;;;-142.75;100.00;76013.25;5029879;28;19948;-69
2022/09/07 07:57:32;;;;;;;;;;;;;;;-142.75;100.00;76001.44;5031619;28;19913;-69
2022/09/07 07:59:58;;;;;;;;;;;;;;;-142.75;100.00;75981.75;5031917;28;19913;-69
2022/09/07 08:02:23;;;;;;;;;;;;;;;-142.75;100.00;75981.75;5031933;28;19920;-69
2022/09/07 08:04:48;;;;;;;;;;;;;;;-142.75;100.00;75958.16;5030809;28;20379;-69
2022/09/07 08:07:14;;;;;;;;;;;;;;;-142.75;100.00;75950.28;5027999;28;19925;-69
2022/09/07 08:09:44;;;;;;;;;;;;;;;-142.75;100.00;75932.56;5031131;28;19920;-70
2022/09/07 08:12:11;;;;;;;;;;;;;;;-142.75;100.00;75901.06;5031908;28;20414;-71
2022/09/07 08:14:39;;;;;;;;;;;;;;;-142.75;100.00;75863.66;5031310;28;19971;-70
2022/09/07 08:17:05;;;;;;;;;;;;;;;-142.75;100.00;75849.91;5031396;28;19917;-70
2022/09/07 08:19:30;;;;;;;;;;;;;;;-142.75;100.00;75836.13;5031350;28;20004;-69
2022/09/07 08:21:55;;;;;;;;;;;;;;;-142.75;100.00;75798.72;5028279;28;19917;-70
2022/09/07 08:24:20;;;;;;;;;;;;;;;-142.75;100.00;75773.13;5029399;28;19917;-69
2022/09/07 08:26:46;;;;;;;;;;;;;;;-142.75;100.00;75737.72;5029394;28;19927;-69
2022/09/07 08:29:11;;;;;;;;;;;;;;;-142.75;100.00;75720.00;5031650;28;19975;-69
2022/09/07 08:31:36;;;;;;;;;;;;;;;-142.75;100.00;75708.19;5031760;28;20393;-69
2022/09/07 08:34:02;;;;;;;;;;;;;;;-142.75;100.00;75688.50;5030822;28;19917;-69
2022/09/07 08:36:27;;;;;;;;;;;;;;;-142.75;100.00;75694.41;5029943;28;19951;-70
2022/09/07 08:38:52;;;;;;;;;;;;;;;-142.75;100.00;75723.94;5031203;28;19924;-69
2022/09/07 08:41:17;;;;;;;;;;;;;;;-142.75;100.00;75712.13;5031440;28;19941;-70
2022/09/07 08:43:56;;;;;;;;;;;;;;;-142.75;100.00;75704.25;5031282;28;20402;-69
2022/09/07 08:46:40;;;;;;;;;;;;;;;-142.75;100.00;75645.22;5031292;28;20398;-69
2022/09/07 08:49:12;;;;;;;;;;;;;;;-142.75;100.00;75592.09;5029841;28;19967;-70
2022/09/07 08:51:41;;;;;;;;;;;;;;;-142.75;100.00;75617.66;5031100;28;20027;-69
2022/09/07 08:54:09;;;;;;;;;;;;;;;-142.75;100.00;75617.66;5030709;28;20364;-70
2022/09/07 08:56:41;;;;;;;;;;;;;;;-142.75;100.00;75572.41;5030463;28;20019;-69
2022/09/07 08:59:22;;;;;;;;;;;;;;;-142.75;100.00;75558.63;5030675;28;20004;-70
2022/09/07 09:01:47;;;;;;;;;;;;;;;-142.75;100.00;75574.38;5030000;28;19913;-69
2022/09/07 09:04:13;;;;;;;;;;;;;;;-142.75;100.00;75535.00;5028564;28;19929;-69
2022/09/07 09:06:38;;;;;;;;;;;;;;;-142.75;100.00;75511.41;5029367;28;19917;-67
2022/09/07 09:09:16;;;;;;;;;;;;;;;-142.75;100.00;75468.09;5029736;28;20341;-69
2022/09/07 09:11:47;;;;;;;;;;;;;;;-142.75;100.00;75434.66;5028697;28;20391;-69
2022/09/07 09:14:18;;;;;;;;;;;;;;;-142.75;100.00;75470.06;5045437;28;19920;-69
2022/09/07 09:16:50;;;;;;;;;;;;;;;-142.75;100.00;75464.16;5028597;28;19935;-69
2022/09/07 09:19:18;;;;;;;;;;;;;;;-142.75;100.00;75456.28;5032594;28;19913;-69
2022/09/07 09:21:43;;;;;;;;;;;;;;;-142.75;100.00;75442.50;5050804;28;19920;-69
2022/09/07 09:24:15;;;;;;;;;;;;;;;-142.75;100.00;75403.16;5035437;28;20378;-69
2022/09/07 09:26:42;;;;;;;;;;;;;;;-142.75;100.00;75438.56;5034977;28;20382;-69
2022/09/07 09:29:16;;;;;;;;;;;;;;;-142.75;100.00;75418.91;5035138;28;19917;-69
2022/09/07 09:31:41;;;;;;;;;;;;;;;-142.75;100.00;75434.66;5035277;28;19939;-70
2022/09/07 09:34:11;;;;;;;;;;;;;;;-142.75;100.00;75448.41;5035277;28;19920;-67
2022/09/07 09:36:44;;;;;;;;;;;;;;;-142.75;100.00;75428.75;5034877;28;20371;-67
2022/09/07 09:39:28;;;;;;;;;;;;;;;-142.75;100.00;75373.63;5035084;28;19913;-69
2022/09/07 09:41:55;;;;;;;;;;;;;;;-142.75;100.00;75346.09;5050065;28;20386;-69
2022/09/07 09:44:20;;;;;;;;;;;;;;;-142.75;100.00;75287.06;5034513;28;20405;-69
2022/09/07 09:46:47;;;;;;;;;;;;;;;-142.75;100.00;75292.97;5034280;28;19930;-68
2022/09/07 09:49:18;;;;;;;;;;;;;;;-142.75;100.00;75271.31;5034388;28;19936;-68
2022/09/07 09:51:46;;;;;;;;;;;;;;;-142.75;100.00;75273.28;5034219;28;19921;-69
2022/09/07 09:54:35;;;;;;;;;;;;;;;-142.75;100.00;75239.81;5033188;28;19972;-69
2022/09/07 09:57:00;;;;;;;;;;;;;;;-142.75;100.00;75228.00;5027948;28;19940;-67
2022/09/07 09:59:30;;;;;;;;;;;;;;;-142.75;100.00;75204.41;5032880;28;19956;-69
2022/09/07 10:01:56;;;;;;;;;;;;;;;-142.75;100.00;75210.31;5034120;28;19920;-68
2022/09/07 10:04:29;;;;;;;;;;;;;;;-142.75;100.00;75204.41;5032936;28;19913;-69
2022/09/07 10:07:19;;;;;;;;;;;;;;;-142.75;100.00;75196.53;5033888;28;19921;-69
2022/09/07 10:09:48;;;;;;;;;;;;;;;-142.75;100.00;75208.34;5031529;28;19925;-68
2022/09/07 10:12:40;;;;;;;;;;;;;;;-142.75;100.00;75239.81;5029141;28;19956;-69
2022/09/07 10:15:05;;;;;;;;;;;;;;;-142.75;100.00;75196.53;5032577;28;20387;-70
2022/09/07 10:17:32;;;;;;;;;;;;;;;-142.75;100.00;75129.63;5033195;28;19968;-70
2022/09/07 10:19:58;;;;;;;;;;;;;;;-142.75;100.00;75127.66;5033568;28;19960;-69
2022/09/07 10:22:37;;;;;;;;;;;;;;;-142.75;100.00;75129.63;5048991;28;19956;-69
2022/09/07 10:25:04;;;;;;;;;;;;;;;-142.75;100.00;75180.78;5032247;28;19917;-69
2022/09/07 10:27:31;;;;;;;;;;;;;;;-142.75;100.00;75149.31;5033607;28;19941;-68
2022/09/07 10:29:57;;;;;;;;;;;;;;;-142.75;100.00;75241.78;5048728;28;19917;-68
2022/09/07 10:32:25;;;;;;;;;;;;;;;-142.75;100.00;75342.16;5047715;28;19917;-67
2022/09/07 10:35:05;;;;;;;;;;;;;;;-142.75;100.00;75302.78;5033525;28;19921;-68
2022/09/07 10:37:46;;;;;;;;;;;;;;;-142.75;100.00;75289.03;5048246;28;19951;-68
2022/09/07 10:40:20;;;;;;;;;;;;;;;-142.75;100.00;75263.44;5032164;28;19972;-68
2022/09/07 10:43:00;;;;;;;;;;;;;;;-142.75;100.00;75259.50;5033533;28;19968;-66
2022/09/07 10:45:35;;;;;;;;;;;;;;;-142.75;100.00;75355.94;5031316;28;19913;-69
2022/09/07 10:48:06;;;;;;;;;;;;;;;-142.75;100.00;75385.44;5033347;28;19964;-68
2022/09/07 10:50:38;;;;;;;;;;;;;;;-142.75;100.00;75294.94;5033253;28;19935;-68
2022/09/07 10:53:03;;;;;;;;;;;;;;;-142.75;100.00;75263.44;5031614;28;20015;-66
2022/09/07 10:55:32;;;;;;;;;;;;;;;-142.75;100.00;75359.88;5054909;22;19944;-67
2022/09/07 10:57:58;;;;;;;;;;;;;;;-142.75;100.00;75338.22;5011455;28;20350;-68
2022/09/07 11:00:24;;;;;;;;;;;;;;;-142.75;100.00;75377.56;5012216;28;19914;-68
2022/09/07 11:02:49;;;;;;;;;;;;;;;-142.75;100.00;75401.19;5012464;28;19936;-67
2022/09/07 11:05:20;;;;;;;;;;;;;;;-142.75;100.00;75361.84;5012688;28;20390;-67
2022/09/07 11:07:53;;;;;;;;;;;;;;;-142.75;100.00;75342.16;4993860;28;19918;-68
2022/09/07 11:10:44;;;;;;;;;;;;;;;-142.75;100.00;75220.16;4994144;28;19914;-69
2022/09/07 11:13:14;;;;;;;;;;;;;;;-142.75;100.00;75208.34;4992990;28;19914;-68
2022/09/07 11:15:44;;;;;;;;;;;;;;;-142.75;100.00;75220.16;5001110;28;19917;-69
2022/09/07 11:18:19;;;;;;;;;;;;;;;-142.75;100.00;75184.72;5012943;28;19918;-66
2022/09/07 11:20:49;;;;;;;;;;;;;;;-142.75;100.00;75216.22;5013423;28;19928;-67
2022/09/07 11:23:42;;;;;;;;;;;;;;;-142.75;100.00;75224.09;5013537;28;19914;-67
2022/09/07 11:26:18;;;;;;;;;;;;;;;-142.75;100.00;75373.63;4998160;28;20012;-69
2022/09/07 11:28:52;;;;;;;;;;;;;;;-142.75;100.00;75306.72;4996041;28;19972;-69
2022/09/07 11:31:20;;;;;;;;;;;;;;;-142.75;100.00;75294.94;5014957;28;20384;-69
2022/09/07 11:33:46;;;;;;;;;;;;;;;-142.75;100.00;75291.00;4996859;28;19970;-69
2022/09/07 11:36:13;;;;;;;;;;;;;;;-142.75;95.01;75298.84;4996977;28;19964;-68
2022/09/07 11:38:45;;;;;;;;;;;;;;;-142.75;100.00;75255.56;5014202;28;19918;-69
2022/09/07 11:41:13;;;;;;;;;;;;;;;-142.75;90.71;75324.44;4996421;28;19914;-69
2022/09/07 11:43:42;;;;;;;;;;;;;;;-142.75;100.00;75255.56;5013414;28;19918;-69
2022/09/07 11:46:16;;;;;;;;;;;;;;;-142.75;96.90;75204.41;5014927;28;19967;-70
2022/09/07 11:48:50;;;;;;;;;;;;;;;-142.75;93.14;75226.06;5014895;28;20000;-69
2022/09/07 11:51:24;;;;;;;;;;;;;;;-142.75;86.80;75153.25;5015228;28;19920;-69
2022/09/07 11:53:52;;;;;;;;;;;;;;;-142.75;86.29;75070.59;5014939;28;20398;-69
2022/09/07 11:56:22;;;;;;;;;;;;;;;-142.75;87.35;75023.38;5015323;28;19925;-70
2022/09/07 11:59:06;;;;;;;;;;;;;;;-142.75;82.55;75033.22;5015108;28;19920;-69
2022/09/07 12:01:41;;;;;;;;;;;;;;;-142.75;76.46;75043.03;5014877;28;19953;-69
2022/09/07 12:04:26;;;;;;;;;;;;;;;-142.75;77.24;75039.13;5014472;28;19959;-70
2022/09/07 12:07:14;;;;;;;;;;;;;;;-142.75;79.47;75003.69;4996832;28;19929;-70
2022/09/07 12:10:00;;;;;;;;;;;;;;;-142.75;75.33;75045.00;5008815;28;19914;-69
2022/09/07 12:12:31;;;;;;;;;;;;;;;-142.75;77.84;75090.28;5013787;28;19993;-69
2022/09/07 12:15:06;;;;;;;;;;;;;;;-142.75;81.81;75092.25;5013225;28;19917;-69
2022/09/07 12:17:49;;;;;;;;;;;;;;;-142.75;79.66;75113.88;5013371;28;19917;-69
2022/09/07 12:20:15;;;;;;;;;;;;;;;-142.75;83.24;75218.19;4995485;28;20310;-69
2022/09/07 12:22:58;;;;;;;;;;;;;;;-142.75;86.91;75200.47;5014331;28;19914;-69
2022/09/07 12:25:24;;;;;;;;;;;;;;;-142.75;82.29;75204.41;5014093;28;19913;-69